sensor_id;sensor_type;location;lat;lon;timestamp;P1;durP1;ratioP1;P2;durP2;ratioP2
42200;SDS011;27869;51.442;7.540;2023-04-25T00:00:00;13.68;;;3.28;;
42200;SDS011;27869;51.442;7.540;2023-04-25T00:02:28;15.23;;;3.28;;
42200;SDS011;27869;51.442;7.540;2023-04-25T00:04:56;14.35;;;3.28;;
42200;SDS011;27869;51.442;7.540;2023-04-25T00:07:24;15.70;;;3.28;;
42200;SDS011;27869;51.442;7.540;2023-04-25T00:09:52;16.25;;;3.13;;
42200;SDS011;27869;51.442;7.540;2023-04-25T00:12:19;18.83;;;3.35;;
42200;SDS011;27869;51.442;7.540;2023-04-25T00:14:47;15.23;;;3.03;;
42200;SDS011;27869;51.442;7.540;2023-04-25T00:17:16;17.13;;;3.55;;
42200;SDS011;27869;51.442;7.540;2023-04-25T00:19:44;15.85;;;2.80;;
42200;SDS011;27869;51.442;7.540;2023-04-25T00:22:11;15.10;;;4.05;;
42200;SDS011;27869;51.442;7.540;2023-04-25T00:24:38;13.70;;;3.13;;
42200;SDS011;27869;51.442;7.540;2023-04-25T00:27:06;13.77;;;2.83;;
42200;SDS011;27869;51.442;7.540;2023-04-25T00:29:33;15.15;;;3.30;;
42200;SDS011;27869;51.442;7.540;2023-04-25T00:32:00;16.33;;;3.00;;
42200;SDS011;27869;51.442;7.540;2023-04-25T00:34:27;16.13;;;3.42;;
42200;SDS011;27869;51.442;7.540;2023-04-25T00:36:54;13.05;;;3.00;;
42200;SDS011;27869;51.442;7.540;2023-04-25T00:39:21;15.68;;;3.15;;
42200;SDS011;27869;51.442;7.540;2023-04-25T00:41:48;15.65;;;3.28;;
42200;SDS011;27869;51.442;7.540;2023-04-25T00:46:46;16.30;;;3.15;;
42200;SDS011;27869;51.442;7.540;2023-04-25T00:49:13;15.68;;;3.55;;
42200;SDS011;27869;51.442;7.540;2023-04-25T00:51:42;16.35;;;3.97;;
42200;SDS011;27869;51.442;7.540;2023-04-25T00:54:10;16.50;;;4.00;;
42200;SDS011;27869;51.442;7.540;2023-04-25T00:56:37;16.17;;;4.38;;
42200;SDS011;27869;51.442;7.540;2023-04-25T00:59:05;14.75;;;3.97;;
42200;SDS011;27869;51.442;7.540;2023-04-25T01:01:33;19.08;;;4.63;;
42200;SDS011;27869;51.442;7.540;2023-04-25T01:04:01;16.77;;;4.38;;
42200;SDS011;27869;51.442;7.540;2023-04-25T01:06:28;16.30;;;4.38;;
42200;SDS011;27869;51.442;7.540;2023-04-25T01:08:56;15.50;;;4.78;;
42200;SDS011;27869;51.442;7.540;2023-04-25T01:11:22;18.63;;;4.63;;
42200;SDS011;27869;51.442;7.540;2023-04-25T01:13:49;15.50;;;4.20;;
42200;SDS011;27869;51.442;7.540;2023-04-25T01:16:16;12.57;;;4.07;;
42200;SDS011;27869;51.442;7.540;2023-04-25T01:18:45;20.75;;;4.53;;
42200;SDS011;27869;51.442;7.540;2023-04-25T01:21:14;16.05;;;4.10;;
42200;SDS011;27869;51.442;7.540;2023-04-25T01:23:41;15.38;;;4.53;;
42200;SDS011;27869;51.442;7.540;2023-04-25T01:26:09;12.13;;;3.90;;
42200;SDS011;27869;51.442;7.540;2023-04-25T01:28:37;17.60;;;4.25;;
42200;SDS011;27869;51.442;7.540;2023-04-25T01:31:06;15.73;;;4.53;;
42200;SDS011;27869;51.442;7.540;2023-04-25T01:33:33;16.00;;;4.45;;
42200;SDS011;27869;51.442;7.540;2023-04-25T01:36:00;20.55;;;4.57;;
42200;SDS011;27869;51.442;7.540;2023-04-25T01:38:28;16.50;;;4.70;;
42200;SDS011;27869;51.442;7.540;2023-04-25T01:40:55;14.90;;;4.43;;
42200;SDS011;27869;51.442;7.540;2023-04-25T01:43:22;19.17;;;4.82;;
42200;SDS011;27869;51.442;7.540;2023-04-25T01:45:49;17.70;;;5.13;;
42200;SDS011;27869;51.442;7.540;2023-04-25T01:48:17;14.40;;;4.50;;
42200;SDS011;27869;51.442;7.540;2023-04-25T01:50:44;17.08;;;4.97;;
42200;SDS011;27869;51.442;7.540;2023-04-25T01:53:12;12.88;;;4.35;;
42200;SDS011;27869;51.442;7.540;2023-04-25T01:55:41;12.50;;;5.13;;
42200;SDS011;27869;51.442;7.540;2023-04-25T01:58:08;13.00;;;4.70;;
42200;SDS011;27869;51.442;7.540;2023-04-25T02:00:38;15.25;;;4.68;;
42200;SDS011;27869;51.442;7.540;2023-04-25T02:03:06;17.38;;;5.18;;
42200;SDS011;27869;51.442;7.540;2023-04-25T02:05:36;17.67;;;6.25;;
42200;SDS011;27869;51.442;7.540;2023-04-25T02:08:04;15.90;;;5.05;;
42200;SDS011;27869;51.442;7.540;2023-04-25T02:10:33;17.23;;;5.18;;
42200;SDS011;27869;51.442;7.540;2023-04-25T02:13:02;17.63;;;5.38;;
42200;SDS011;27869;51.442;7.540;2023-04-25T02:15:29;16.70;;;6.13;;
42200;SDS011;27869;51.442;7.540;2023-04-25T02:17:56;16.95;;;5.72;;
42200;SDS011;27869;51.442;7.540;2023-04-25T02:20:25;15.75;;;5.57;;
42200;SDS011;27869;51.442;7.540;2023-04-25T02:22:53;18.95;;;5.75;;
42200;SDS011;27869;51.442;7.540;2023-04-25T02:25:20;20.77;;;6.07;;
42200;SDS011;27869;51.442;7.540;2023-04-25T02:27:47;16.38;;;5.68;;
42200;SDS011;27869;51.442;7.540;2023-04-25T02:30:16;15.57;;;5.40;;
42200;SDS011;27869;51.442;7.540;2023-04-25T02:32:43;19.77;;;5.72;;
42200;SDS011;27869;51.442;7.540;2023-04-25T02:35:10;18.65;;;5.55;;
42200;SDS011;27869;51.442;7.540;2023-04-25T02:37:38;17.70;;;5.43;;
42200;SDS011;27869;51.442;7.540;2023-04-25T02:40:06;17.85;;;5.70;;
42200;SDS011;27869;51.442;7.540;2023-04-25T02:42:34;17.55;;;5.63;;
42200;SDS011;27869;51.442;7.540;2023-04-25T02:45:01;17.70;;;5.53;;
42200;SDS011;27869;51.442;7.540;2023-04-25T02:47:32;16.08;;;5.35;;
42200;SDS011;27869;51.442;7.540;2023-04-25T02:49:59;16.88;;;5.30;;
42200;SDS011;27869;51.442;7.540;2023-04-25T02:52:26;19.30;;;6.07;;
42200;SDS011;27869;51.442;7.540;2023-04-25T02:54:53;18.25;;;5.85;;
42200;SDS011;27869;51.442;7.540;2023-04-25T02:57:20;19.77;;;6.75;;
42200;SDS011;27869;51.442;7.540;2023-04-25T02:59:47;18.67;;;8.05;;
42200;SDS011;27869;51.442;7.540;2023-04-25T03:02:14;20.70;;;7.10;;
42200;SDS011;27869;51.442;7.540;2023-04-25T03:04:42;22.08;;;7.18;;
42200;SDS011;27869;51.442;7.540;2023-04-25T03:07:09;18.10;;;7.03;;
42200;SDS011;27869;51.442;7.540;2023-04-25T03:09:36;17.40;;;6.35;;
42200;SDS011;27869;51.442;7.540;2023-04-25T03:12:04;20.70;;;6.80;;
42200;SDS011;27869;51.442;7.540;2023-04-25T03:14:31;16.13;;;6.25;;
42200;SDS011;27869;51.442;7.540;2023-04-25T03:16:57;20.30;;;6.13;;
42200;SDS011;27869;51.442;7.540;2023-04-25T03:19:24;19.35;;;6.68;;
42200;SDS011;27869;51.442;7.540;2023-04-25T03:21:52;19.90;;;6.15;;
42200;SDS011;27869;51.442;7.540;2023-04-25T03:24:19;16.13;;;6.07;;
42200;SDS011;27869;51.442;7.540;2023-04-25T03:26:47;16.33;;;5.95;;
42200;SDS011;27869;51.442;7.540;2023-04-25T03:29:13;19.63;;;6.03;;
42200;SDS011;27869;51.442;7.540;2023-04-25T03:31:40;16.98;;;6.28;;
42200;SDS011;27869;51.442;7.540;2023-04-25T03:34:07;16.33;;;5.50;;
42200;SDS011;27869;51.442;7.540;2023-04-25T03:36:34;16.60;;;6.38;;
42200;SDS011;27869;51.442;7.540;2023-04-25T03:39:02;14.50;;;5.78;;
42200;SDS011;27869;51.442;7.540;2023-04-25T03:41:29;18.70;;;6.03;;
42200;SDS011;27869;51.442;7.540;2023-04-25T03:43:56;18.42;;;5.68;;
42200;SDS011;27869;51.442;7.540;2023-04-25T03:46:23;16.98;;;5.97;;
42200;SDS011;27869;51.442;7.540;2023-04-25T03:48:50;19.67;;;5.70;;
42200;SDS011;27869;51.442;7.540;2023-04-25T03:51:17;16.38;;;5.07;;
42200;SDS011;27869;51.442;7.540;2023-04-25T03:53:43;17.27;;;5.43;;
42200;SDS011;27869;51.442;7.540;2023-04-25T03:56:12;18.05;;;5.75;;
42200;SDS011;27869;51.442;7.540;2023-04-25T03:58:38;14.43;;;5.15;;
42200;SDS011;27869;51.442;7.540;2023-04-25T04:01:05;15.93;;;5.40;;
42200;SDS011;27869;51.442;7.540;2023-04-25T04:03:33;15.20;;;4.85;;
42200;SDS011;27869;51.442;7.540;2023-04-25T04:06:00;18.77;;;5.32;;
42200;SDS011;27869;51.442;7.540;2023-04-25T04:08:28;16.33;;;4.57;;
42200;SDS011;27869;51.442;7.540;2023-04-25T04:10:56;18.25;;;4.45;;
42200;SDS011;27869;51.442;7.540;2023-04-25T04:13:25;18.55;;;4.72;;
42200;SDS011;27869;51.442;7.540;2023-04-25T04:15:52;14.85;;;4.78;;
42200;SDS011;27869;51.442;7.540;2023-04-25T04:18:19;18.38;;;4.65;;
42200;SDS011;27869;51.442;7.540;2023-04-25T04:20:46;17.67;;;4.97;;
42200;SDS011;27869;51.442;7.540;2023-04-25T04:23:12;18.23;;;4.97;;
42200;SDS011;27869;51.442;7.540;2023-04-25T04:25:39;17.33;;;4.70;;
42200;SDS011;27869;51.442;7.540;2023-04-25T04:28:06;20.50;;;5.75;;
42200;SDS011;27869;51.442;7.540;2023-04-25T04:30:35;20.58;;;4.63;;
42200;SDS011;27869;51.442;7.540;2023-04-25T04:33:02;19.27;;;5.35;;
42200;SDS011;27869;51.442;7.540;2023-04-25T04:35:29;15.18;;;3.13;;
42200;SDS011;27869;51.442;7.540;2023-04-25T04:37:56;8.05;;;2.22;;
42200;SDS011;27869;51.442;7.540;2023-04-25T04:40:23;9.85;;;2.00;;
42200;SDS011;27869;51.442;7.540;2023-04-25T04:42:50;10.70;;;1.95;;
42200;SDS011;27869;51.442;7.540;2023-04-25T04:45:18;10.50;;;1.88;;
42200;SDS011;27869;51.442;7.540;2023-04-25T04:47:47;11.02;;;2.10;;
42200;SDS011;27869;51.442;7.540;2023-04-25T04:50:14;7.45;;;1.95;;
42200;SDS011;27869;51.442;7.540;2023-04-25T04:52:41;9.63;;;2.00;;
42200;SDS011;27869;51.442;7.540;2023-04-25T04:55:08;10.45;;;1.77;;
42200;SDS011;27869;51.442;7.540;2023-04-25T04:57:35;8.40;;;1.92;;
42200;SDS011;27869;51.442;7.540;2023-04-25T05:00:04;10.18;;;2.00;;
42200;SDS011;27869;51.442;7.540;2023-04-25T05:02:35;11.27;;;1.98;;
42200;SDS011;27869;51.442;7.540;2023-04-25T05:05:04;6.30;;;1.50;;
42200;SDS011;27869;51.442;7.540;2023-04-25T05:07:31;9.00;;;1.80;;
42200;SDS011;27869;51.442;7.540;2023-04-25T05:09:58;9.00;;;1.85;;
42200;SDS011;27869;51.442;7.540;2023-04-25T05:12:25;10.45;;;1.90;;
42200;SDS011;27869;51.442;7.540;2023-04-25T05:14:52;11.77;;;1.80;;
42200;SDS011;27869;51.442;7.540;2023-04-25T05:17:19;8.00;;;1.67;;
42200;SDS011;27869;51.442;7.540;2023-04-25T05:19:46;11.02;;;2.03;;
42200;SDS011;27869;51.442;7.540;2023-04-25T05:22:14;10.68;;;1.77;;
42200;SDS011;27869;51.442;7.540;2023-04-25T05:24:41;11.93;;;1.90;;
42200;SDS011;27869;51.442;7.540;2023-04-25T05:27:08;8.20;;;1.83;;
42200;SDS011;27869;51.442;7.540;2023-04-25T05:29:35;10.13;;;2.15;;
42200;SDS011;27869;51.442;7.540;2023-04-25T05:32:02;8.60;;;2.00;;
42200;SDS011;27869;51.442;7.540;2023-04-25T05:34:29;11.85;;;2.03;;
42200;SDS011;27869;51.442;7.540;2023-04-25T05:36:56;9.07;;;1.70;;
42200;SDS011;27869;51.442;7.540;2023-04-25T05:39:24;11.18;;;2.08;;
42200;SDS011;27869;51.442;7.540;2023-04-25T05:41:51;9.93;;;1.88;;
42200;SDS011;27869;51.442;7.540;2023-04-25T05:44:18;12.40;;;1.85;;
42200;SDS011;27869;51.442;7.540;2023-04-25T05:46:45;14.65;;;2.45;;
42200;SDS011;27869;51.442;7.540;2023-04-25T05:49:12;13.18;;;1.90;;
42200;SDS011;27869;51.442;7.540;2023-04-25T05:51:39;16.98;;;2.40;;
42200;SDS011;27869;51.442;7.540;2023-04-25T05:54:06;10.82;;;2.03;;
42200;SDS011;27869;51.442;7.540;2023-04-25T05:56:34;11.07;;;1.95;;
42200;SDS011;27869;51.442;7.540;2023-04-25T05:59:01;10.90;;;2.40;;
42200;SDS011;27869;51.442;7.540;2023-04-25T06:01:28;12.25;;;2.20;;
42200;SDS011;27869;51.442;7.540;2023-04-25T06:03:55;14.55;;;2.60;;
42200;SDS011;27869;51.442;7.540;2023-04-25T06:06:22;14.93;;;2.58;;
42200;SDS011;27869;51.442;7.540;2023-04-25T06:08:48;13.38;;;2.67;;
42200;SDS011;27869;51.442;7.540;2023-04-25T06:11:15;14.27;;;2.80;;
42200;SDS011;27869;51.442;7.540;2023-04-25T06:13:44;13.90;;;2.70;;
42200;SDS011;27869;51.442;7.540;2023-04-25T06:16:11;14.82;;;2.85;;
42200;SDS011;27869;51.442;7.540;2023-04-25T06:18:38;18.48;;;3.03;;
42200;SDS011;27869;51.442;7.540;2023-04-25T06:21:05;15.25;;;3.38;;
42200;SDS011;27869;51.442;7.540;2023-04-25T06:23:32;15.68;;;4.13;;
42200;SDS011;27869;51.442;7.540;2023-04-25T06:25:59;14.35;;;3.58;;
42200;SDS011;27869;51.442;7.540;2023-04-25T06:28:26;17.70;;;4.18;;
42200;SDS011;27869;51.442;7.540;2023-04-25T06:30:54;16.27;;;4.28;;
42200;SDS011;27869;51.442;7.540;2023-04-25T06:33:21;16.30;;;3.67;;
42200;SDS011;27869;51.442;7.540;2023-04-25T06:35:49;13.93;;;3.28;;
42200;SDS011;27869;51.442;7.540;2023-04-25T06:38:16;18.27;;;3.92;;
42200;SDS011;27869;51.442;7.540;2023-04-25T06:40:43;14.63;;;3.75;;
42200;SDS011;27869;51.442;7.540;2023-04-25T06:43:09;17.35;;;4.05;;
42200;SDS011;27869;51.442;7.540;2023-04-25T06:45:36;15.18;;;3.83;;
42200;SDS011;27869;51.442;7.540;2023-04-25T06:48:05;20.80;;;4.03;;
42200;SDS011;27869;51.442;7.540;2023-04-25T06:50:33;14.38;;;3.80;;
42200;SDS011;27869;51.442;7.540;2023-04-25T06:53:00;16.95;;;3.60;;
42200;SDS011;27869;51.442;7.540;2023-04-25T06:55:27;18.27;;;4.30;;
42200;SDS011;27869;51.442;7.540;2023-04-25T06:57:55;18.38;;;4.13;;
42200;SDS011;27869;51.442;7.540;2023-04-25T07:00:21;16.88;;;3.78;;
42200;SDS011;27869;51.442;7.540;2023-04-25T07:02:48;19.08;;;4.18;;
42200;SDS011;27869;51.442;7.540;2023-04-25T07:05:17;16.10;;;3.95;;
42200;SDS011;27869;51.442;7.540;2023-04-25T07:07:44;17.42;;;3.75;;
42200;SDS011;27869;51.442;7.540;2023-04-25T07:10:11;17.88;;;3.85;;
42200;SDS011;27869;51.442;7.540;2023-04-25T07:12:38;18.60;;;3.50;;
42200;SDS011;27869;51.442;7.540;2023-04-25T07:15:05;16.90;;;3.22;;
42200;SDS011;27869;51.442;7.540;2023-04-25T07:17:35;13.63;;;2.63;;
42200;SDS011;27869;51.442;7.540;2023-04-25T07:20:02;18.58;;;2.97;;
42200;SDS011;27869;51.442;7.540;2023-04-25T07:22:32;15.70;;;3.13;;
42200;SDS011;27869;51.442;7.540;2023-04-25T07:24:59;13.95;;;2.80;;
42200;SDS011;27869;51.442;7.540;2023-04-25T07:27:26;16.65;;;3.30;;
42200;SDS011;27869;51.442;7.540;2023-04-25T07:29:52;19.15;;;2.80;;
42200;SDS011;27869;51.442;7.540;2023-04-25T07:32:19;13.52;;;2.58;;
42200;SDS011;27869;51.442;7.540;2023-04-25T07:34:46;15.88;;;2.85;;
42200;SDS011;27869;51.442;7.540;2023-04-25T07:37:13;17.80;;;3.38;;
42200;SDS011;27869;51.442;7.540;2023-04-25T07:39:42;20.52;;;2.72;;
42200;SDS011;27869;51.442;7.540;2023-04-25T07:42:08;12.65;;;2.70;;
42200;SDS011;27869;51.442;7.540;2023-04-25T07:44:35;14.65;;;2.72;;
42200;SDS011;27869;51.442;7.540;2023-04-25T07:49:33;9.63;;;1.77;;
42200;SDS011;27869;51.442;7.540;2023-04-25T07:52:00;15.07;;;2.13;;
42200;SDS011;27869;51.442;7.540;2023-04-25T07:54:27;13.20;;;2.05;;
42200;SDS011;27869;51.442;7.540;2023-04-25T07:56:56;11.95;;;2.03;;
42200;SDS011;27869;51.442;7.540;2023-04-25T07:59:23;14.95;;;2.70;;
42200;SDS011;27869;51.442;7.540;2023-04-25T08:01:50;11.38;;;2.53;;
42200;SDS011;27869;51.442;7.540;2023-04-25T08:04:17;14.02;;;2.65;;
42200;SDS011;27869;51.442;7.540;2023-04-25T08:06:43;13.73;;;2.60;;
42200;SDS011;27869;51.442;7.540;2023-04-25T08:09:10;18.50;;;2.90;;
42200;SDS011;27869;51.442;7.540;2023-04-25T08:11:37;15.20;;;3.03;;
42200;SDS011;27869;51.442;7.540;2023-04-25T08:14:06;16.83;;;2.47;;
42200;SDS011;27869;51.442;7.540;2023-04-25T08:16:33;19.45;;;3.00;;
42200;SDS011;27869;51.442;7.540;2023-04-25T08:19:00;16.33;;;2.40;;
42200;SDS011;27869;51.442;7.540;2023-04-25T08:21:27;12.05;;;2.08;;
42200;SDS011;27869;51.442;7.540;2023-04-25T08:23:54;15.65;;;2.42;;
42200;SDS011;27869;51.442;7.540;2023-04-25T08:26:21;21.83;;;2.92;;
42200;SDS011;27869;51.442;7.540;2023-04-25T08:28:48;15.00;;;2.42;;
42200;SDS011;27869;51.442;7.540;2023-04-25T08:31:16;16.83;;;2.53;;
42200;SDS011;27869;51.442;7.540;2023-04-25T08:33:43;16.10;;;2.70;;
42200;SDS011;27869;51.442;7.540;2023-04-25T08:36:10;12.85;;;2.30;;
42200;SDS011;27869;51.442;7.540;2023-04-25T08:38:37;15.05;;;2.30;;
42200;SDS011;27869;51.442;7.540;2023-04-25T08:41:04;17.25;;;2.65;;
42200;SDS011;27869;51.442;7.540;2023-04-25T08:43:32;14.63;;;2.20;;
42200;SDS011;27869;51.442;7.540;2023-04-25T08:46:02;13.98;;;2.20;;
42200;SDS011;27869;51.442;7.540;2023-04-25T08:48:32;12.38;;;1.83;;
42200;SDS011;27869;51.442;7.540;2023-04-25T08:51:01;15.80;;;2.25;;
42200;SDS011;27869;51.442;7.540;2023-04-25T08:53:31;20.08;;;2.30;;
42200;SDS011;27869;51.442;7.540;2023-04-25T08:55:59;13.55;;;2.22;;
42200;SDS011;27869;51.442;7.540;2023-04-25T08:58:27;16.50;;;1.90;;
42200;SDS011;27869;51.442;7.540;2023-04-25T09:00:56;10.00;;;2.00;;
42200;SDS011;27869;51.442;7.540;2023-04-25T09:03:23;8.90;;;1.52;;
42200;SDS011;27869;51.442;7.540;2023-04-25T09:05:51;14.77;;;2.15;;
42200;SDS011;27869;51.442;7.540;2023-04-25T09:08:20;12.32;;;1.95;;
42200;SDS011;27869;51.442;7.540;2023-04-25T09:10:46;9.95;;;1.60;;
42200;SDS011;27869;51.442;7.540;2023-04-25T09:13:14;9.63;;;2.03;;
42200;SDS011;27869;51.442;7.540;2023-04-25T09:15:50;15.43;;;2.00;;
42200;SDS011;27869;51.442;7.540;2023-04-25T09:18:21;10.38;;;1.60;;
42200;SDS011;27869;51.442;7.540;2023-04-25T09:20:51;14.45;;;1.90;;
42200;SDS011;27869;51.442;7.540;2023-04-25T09:23:19;13.48;;;2.10;;
42200;SDS011;27869;51.442;7.540;2023-04-25T09:25:47;12.60;;;2.10;;
42200;SDS011;27869;51.442;7.540;2023-04-25T09:28:15;10.15;;;1.70;;
42200;SDS011;27869;51.442;7.540;2023-04-25T09:30:42;8.60;;;1.55;;
42200;SDS011;27869;51.442;7.540;2023-04-25T09:33:12;7.72;;;1.42;;
42200;SDS011;27869;51.442;7.540;2023-04-25T09:35:39;10.35;;;1.65;;
42200;SDS011;27869;51.442;7.540;2023-04-25T09:38:09;10.32;;;1.63;;
42200;SDS011;27869;51.442;7.540;2023-04-25T09:40:40;14.02;;;2.63;;
42200;SDS011;27869;51.442;7.540;2023-04-25T09:43:14;9.25;;;2.45;;
42200;SDS011;27869;51.442;7.540;2023-04-25T09:45:45;9.85;;;1.67;;
42200;SDS011;27869;51.442;7.540;2023-04-25T09:48:15;11.40;;;1.88;;
42200;SDS011;27869;51.442;7.540;2023-04-25T09:50:44;10.95;;;1.77;;
42200;SDS011;27869;51.442;7.540;2023-04-25T09:53:13;10.40;;;2.10;;
42200;SDS011;27869;51.442;7.540;2023-04-25T09:55:40;10.27;;;1.92;;
42200;SDS011;27869;51.442;7.540;2023-04-25T09:58:09;10.20;;;1.42;;
42200;SDS011;27869;51.442;7.540;2023-04-25T10:00:37;9.15;;;1.70;;
42200;SDS011;27869;51.442;7.540;2023-04-25T10:03:05;9.80;;;1.80;;
42200;SDS011;27869;51.442;7.540;2023-04-25T10:05:32;9.70;;;1.80;;
42200;SDS011;27869;51.442;7.540;2023-04-25T10:08:03;9.95;;;1.83;;
42200;SDS011;27869;51.442;7.540;2023-04-25T10:10:33;9.73;;;1.52;;
42200;SDS011;27869;51.442;7.540;2023-04-25T10:13:03;10.73;;;1.85;;
42200;SDS011;27869;51.442;7.540;2023-04-25T10:15:32;12.68;;;1.90;;
42200;SDS011;27869;51.442;7.540;2023-04-25T10:18:01;14.90;;;1.83;;
42200;SDS011;27869;51.442;7.540;2023-04-25T10:20:29;9.70;;;1.80;;
42200;SDS011;27869;51.442;7.540;2023-04-25T10:22:58;11.07;;;1.90;;
42200;SDS011;27869;51.442;7.540;2023-04-25T10:25:34;13.75;;;1.85;;
42200;SDS011;27869;51.442;7.540;2023-04-25T10:28:02;10.98;;;2.22;;
42200;SDS011;27869;51.442;7.540;2023-04-25T10:30:30;8.13;;;1.60;;
42200;SDS011;27869;51.442;7.540;2023-04-25T10:32:58;10.07;;;1.67;;
42200;SDS011;27869;51.442;7.540;2023-04-25T10:35:26;7.75;;;1.35;;
42200;SDS011;27869;51.442;7.540;2023-04-25T10:38:03;10.52;;;1.73;;
42200;SDS011;27869;51.442;7.540;2023-04-25T10:40:31;10.32;;;1.40;;
42200;SDS011;27869;51.442;7.540;2023-04-25T10:46:00;9.48;;;1.48;;
42200;SDS011;27869;51.442;7.540;2023-04-25T10:48:27;7.95;;;1.20;;
42200;SDS011;27869;51.442;7.540;2023-04-25T10:51:06;8.80;;;1.30;;
42200;SDS011;27869;51.442;7.540;2023-04-25T10:53:34;8.93;;;1.20;;
42200;SDS011;27869;51.442;7.540;2023-04-25T10:56:08;6.45;;;1.10;;
42200;SDS011;27869;51.442;7.540;2023-04-25T10:58:36;6.28;;;1.20;;
42200;SDS011;27869;51.442;7.540;2023-04-25T11:01:09;6.93;;;1.17;;
42200;SDS011;27869;51.442;7.540;2023-04-25T11:03:40;8.40;;;1.40;;
42200;SDS011;27869;51.442;7.540;2023-04-25T11:06:22;6.88;;;1.15;;
42200;SDS011;27869;51.442;7.540;2023-04-25T11:09:00;8.77;;;1.35;;
42200;SDS011;27869;51.442;7.540;2023-04-25T11:11:28;11.18;;;1.45;;
42200;SDS011;27869;51.442;7.540;2023-04-25T11:13:56;6.35;;;1.00;;
42200;SDS011;27869;51.442;7.540;2023-04-25T11:16:25;7.63;;;1.27;;
42200;SDS011;27869;51.442;7.540;2023-04-25T11:18:51;8.73;;;1.27;;
42200;SDS011;27869;51.442;7.540;2023-04-25T11:21:18;9.35;;;1.35;;
42200;SDS011;27869;51.442;7.540;2023-04-25T11:23:46;9.50;;;1.23;;
42200;SDS011;27869;51.442;7.540;2023-04-25T11:26:13;9.73;;;1.50;;
42200;SDS011;27869;51.442;7.540;2023-04-25T11:28:40;13.10;;;1.80;;
42200;SDS011;27869;51.442;7.540;2023-04-25T11:31:10;8.88;;;1.73;;
42200;SDS011;27869;51.442;7.540;2023-04-25T11:33:39;10.02;;;1.40;;
42200;SDS011;27869;51.442;7.540;2023-04-25T11:36:06;8.52;;;1.40;;
42200;SDS011;27869;51.442;7.540;2023-04-25T11:38:34;10.27;;;1.50;;
42200;SDS011;27869;51.442;7.540;2023-04-25T11:41:00;6.35;;;1.23;;
42200;SDS011;27869;51.442;7.540;2023-04-25T11:43:28;8.88;;;1.80;;
42200;SDS011;27869;51.442;7.540;2023-04-25T11:45:55;8.38;;;1.30;;
42200;SDS011;27869;51.442;7.540;2023-04-25T11:48:22;6.57;;;1.20;;
42200;SDS011;27869;51.442;7.540;2023-04-25T11:50:50;11.73;;;1.80;;
42200;SDS011;27869;51.442;7.540;2023-04-25T11:53:17;7.47;;;1.20;;
42200;SDS011;27869;51.442;7.540;2023-04-25T11:55:44;8.32;;;1.52;;
42200;SDS011;27869;51.442;7.540;2023-04-25T11:58:11;5.10;;;1.10;;
42200;SDS011;27869;51.442;7.540;2023-04-25T12:00:41;3.03;;;0.98;;
42200;SDS011;27869;51.442;7.540;2023-04-25T12:03:08;5.38;;;1.10;;
42200;SDS011;27869;51.442;7.540;2023-04-25T12:05:35;10.35;;;1.80;;
42200;SDS011;27869;51.442;7.540;2023-04-25T12:08:13;5.07;;;1.13;;
42200;SDS011;27869;51.442;7.540;2023-04-25T12:10:41;6.32;;;1.20;;
42200;SDS011;27869;51.442;7.540;2023-04-25T12:15:54;8.00;;;1.20;;
42200;SDS011;27869;51.442;7.540;2023-04-25T12:18:23;4.93;;;0.95;;
42200;SDS011;27869;51.442;7.540;2023-04-25T12:20:53;5.43;;;1.00;;
42200;SDS011;27869;51.442;7.540;2023-04-25T12:23:26;3.88;;;0.60;;
42200;SDS011;27869;51.442;7.540;2023-04-25T12:25:53;3.95;;;0.82;;
42200;SDS011;27869;51.442;7.540;2023-04-25T12:28:21;5.13;;;0.90;;
42200;SDS011;27869;51.442;7.540;2023-04-25T12:30:56;3.55;;;0.60;;
42200;SDS011;27869;51.442;7.540;2023-04-25T12:33:24;4.80;;;0.80;;
42200;SDS011;27869;51.442;7.540;2023-04-25T12:35:52;5.65;;;0.93;;
42200;SDS011;27869;51.442;7.540;2023-04-25T12:38:22;4.47;;;1.00;;
42200;SDS011;27869;51.442;7.540;2023-04-25T12:40:52;5.68;;;0.85;;
42200;SDS011;27869;51.442;7.540;2023-04-25T12:43:19;6.97;;;1.00;;
42200;SDS011;27869;51.442;7.540;2023-04-25T12:45:47;5.13;;;1.15;;
42200;SDS011;27869;51.442;7.540;2023-04-25T12:48:15;2.97;;;0.88;;
42200;SDS011;27869;51.442;7.540;2023-04-25T12:50:42;5.75;;;0.85;;
42200;SDS011;27869;51.442;7.540;2023-04-25T12:53:10;6.28;;;1.38;;
42200;SDS011;27869;51.442;7.540;2023-04-25T12:55:37;6.68;;;0.90;;
42200;SDS011;27869;51.442;7.540;2023-04-25T12:58:05;6.85;;;1.20;;
42200;SDS011;27869;51.442;7.540;2023-04-25T13:00:32;6.15;;;0.98;;
42200;SDS011;27869;51.442;7.540;2023-04-25T13:02:59;4.43;;;0.90;;
42200;SDS011;27869;51.442;7.540;2023-04-25T13:05:27;5.22;;;0.90;;
42200;SDS011;27869;51.442;7.540;2023-04-25T13:07:55;7.18;;;1.00;;
42200;SDS011;27869;51.442;7.540;2023-04-25T13:10:22;6.10;;;0.93;;
42200;SDS011;27869;51.442;7.540;2023-04-25T13:12:49;5.88;;;1.10;;
42200;SDS011;27869;51.442;7.540;2023-04-25T13:15:17;6.05;;;1.42;;
42200;SDS011;27869;51.442;7.540;2023-04-25T13:20:12;4.22;;;0.88;;
42200;SDS011;27869;51.442;7.540;2023-04-25T13:22:40;6.18;;;1.15;;
42200;SDS011;27869;51.442;7.540;2023-04-25T13:25:08;7.65;;;1.05;;
42200;SDS011;27869;51.442;7.540;2023-04-25T13:27:35;4.80;;;0.90;;
42200;SDS011;27869;51.442;7.540;2023-04-25T13:30:05;5.20;;;0.98;;
42200;SDS011;27869;51.442;7.540;2023-04-25T13:32:35;2.90;;;0.73;;
42200;SDS011;27869;51.442;7.540;2023-04-25T13:35:02;4.80;;;0.90;;
42200;SDS011;27869;51.442;7.540;2023-04-25T13:37:33;11.00;;;1.30;;
42200;SDS011;27869;51.442;7.540;2023-04-25T13:40:01;8.48;;;1.20;;
42200;SDS011;27869;51.442;7.540;2023-04-25T13:44:56;5.88;;;0.90;;
42200;SDS011;27869;51.442;7.540;2023-04-25T13:47:25;5.55;;;0.95;;
42200;SDS011;27869;51.442;7.540;2023-04-25T13:49:54;9.05;;;1.10;;
42200;SDS011;27869;51.442;7.540;2023-04-25T13:52:21;9.65;;;1.23;;
42200;SDS011;27869;51.442;7.540;2023-04-25T13:54:49;5.97;;;0.93;;
42200;SDS011;27869;51.442;7.540;2023-04-25T13:57:17;5.93;;;0.93;;
42200;SDS011;27869;51.442;7.540;2023-04-25T13:59:44;5.07;;;0.95;;
42200;SDS011;27869;51.442;7.540;2023-04-25T14:02:11;5.10;;;0.95;;
42200;SDS011;27869;51.442;7.540;2023-04-25T14:04:38;6.70;;;1.10;;
42200;SDS011;27869;51.442;7.540;2023-04-25T14:07:06;7.43;;;1.45;;
42200;SDS011;27869;51.442;7.540;2023-04-25T14:09:33;5.05;;;1.20;;
42200;SDS011;27869;51.442;7.540;2023-04-25T14:12:00;11.48;;;2.80;;
42200;SDS011;27869;51.442;7.540;2023-04-25T14:14:27;11.65;;;1.42;;
42200;SDS011;27869;51.442;7.540;2023-04-25T14:16:54;6.72;;;1.08;;
42200;SDS011;27869;51.442;7.540;2023-04-25T14:19:22;5.28;;;0.98;;
42200;SDS011;27869;51.442;7.540;2023-04-25T14:21:49;4.25;;;1.05;;
42200;SDS011;27869;51.442;7.540;2023-04-25T14:24:18;9.80;;;1.33;;
42200;SDS011;27869;51.442;7.540;2023-04-25T14:26:45;8.57;;;1.02;;
42200;SDS011;27869;51.442;7.540;2023-04-25T14:29:12;5.70;;;1.08;;
42200;SDS011;27869;51.442;7.540;2023-04-25T14:31:39;8.70;;;1.13;;
42200;SDS011;27869;51.442;7.540;2023-04-25T14:34:06;5.95;;;1.20;;
42200;SDS011;27869;51.442;7.540;2023-04-25T14:36:35;9.55;;;1.42;;
42200;SDS011;27869;51.442;7.540;2023-04-25T14:39:02;7.97;;;1.40;;
42200;SDS011;27869;51.442;7.540;2023-04-25T14:41:31;8.70;;;1.40;;
42200;SDS011;27869;51.442;7.540;2023-04-25T14:43:58;8.02;;;1.63;;
42200;SDS011;27869;51.442;7.540;2023-04-25T14:46:25;4.68;;;1.05;;
42200;SDS011;27869;51.442;7.540;2023-04-25T14:48:52;11.38;;;1.40;;
42200;SDS011;27869;51.442;7.540;2023-04-25T14:51:20;7.95;;;1.40;;
42200;SDS011;27869;51.442;7.540;2023-04-25T14:53:47;10.25;;;1.35;;
42200;SDS011;27869;51.442;7.540;2023-04-25T14:56:15;6.13;;;0.85;;